createdAt,value
2017-09-24T00:00:52.780Z,1016.18
2017-09-24T00:01:52.759Z,1016.16
2017-09-24T00:02:52.740Z,1016.16
2017-09-24T00:03:52.727Z,1016.13
2017-09-24T00:04:52.710Z,1016.12
2017-09-24T00:05:52.700Z,1016.12
2017-09-24T00:06:52.665Z,1016.09
2017-09-24T00:07:52.649Z,1016.1
2017-09-24T00:08:52.643Z,1016.06
2017-09-24T00:09:52.620Z,1016.08
2017-09-24T00:10:52.601Z,1016.09
2017-09-24T00:11:52.580Z,1016.08
2017-09-24T00:12:52.557Z,1016.07
2017-09-24T00:13:52.538Z,1016.05
2017-09-24T00:14:52.518Z,1016.05
2017-09-24T00:15:52.506Z,1016.05
2017-09-24T00:16:52.483Z,1016.03
2017-09-24T00:17:52.469Z,1016.01
2017-09-24T00:18:52.445Z,1016.01
2017-09-24T00:19:52.426Z,1016.01
2017-09-24T00:20:52.408Z,1016.01
2017-09-24T00:21:52.388Z,1016.01
2017-09-24T00:22:52.377Z,1016.06
2017-09-24T00:23:52.411Z,1016.03
2017-09-24T00:24:52.338Z,1016.04
2017-09-24T00:25:52.321Z,1016.01
2017-09-24T00:26:52.308Z,1016.04
2017-09-24T00:27:52.289Z,1016.02
2017-09-24T00:28:52.261Z,1016.02
2017-09-24T00:29:52.260Z,1016.03
2017-09-24T00:30:52.235Z,1016.02
2017-09-24T00:31:52.209Z,1016.02
2017-09-24T00:32:52.191Z,1016.03
2017-09-24T00:33:52.179Z,1016
2017-09-24T00:34:52.161Z,1015.99
2017-09-24T00:35:52.140Z,1016
2017-09-24T00:36:52.117Z,1016.02
2017-09-24T00:37:52.097Z,1016.02
2017-09-24T00:38:52.081Z,1015.99
2017-09-24T00:39:52.058Z,1016.03
2017-09-24T00:40:52.047Z,1015.99
2017-09-24T00:41:52.021Z,1016.02
2017-09-24T00:42:52.011Z,1016.02
2017-09-24T00:43:51.988Z,1016.02
2017-09-24T00:44:51.979Z,1016.04
2017-09-24T00:45:51.951Z,1016
2017-09-24T00:46:51.938Z,1016.04
2017-09-24T00:47:51.917Z,1016.03
2017-09-24T00:48:51.894Z,1016.05
2017-09-24T00:49:51.878Z,1016.02
2017-09-24T00:50:51.860Z,1016.02
2017-09-24T00:51:51.844Z,1016
2017-09-24T00:52:51.826Z,1016.04
2017-09-24T00:53:51.803Z,1016.02
2017-09-24T00:54:51.789Z,1016.01
2017-09-24T00:55:51.768Z,1016.01
2017-09-24T00:56:51.748Z,1016.02
2017-09-24T00:57:51.739Z,1016.01
2017-09-24T00:58:51.718Z,1015.99
2017-09-24T00:59:51.697Z,1015.98
2017-09-24T01:00:51.677Z,1015.98
2017-09-24T01:01:51.677Z,1015.99
2017-09-24T01:02:51.645Z,1015.97
2017-09-24T01:03:51.628Z,1015.95
2017-09-24T01:04:51.608Z,1015.97
2017-09-24T01:05:51.585Z,1015.93
2017-09-24T01:06:51.569Z,1015.97
2017-09-24T01:07:51.548Z,1015.93
2017-09-24T01:08:51.528Z,1015.95
2017-09-24T01:09:51.518Z,1015.95
2017-09-24T01:10:51.492Z,1015.96
2017-09-24T01:11:51.480Z,1015.96
2017-09-24T01:12:51.453Z,1015.95
2017-09-24T01:13:51.439Z,1015.95
2017-09-24T01:14:51.427Z,1015.93
2017-09-24T01:15:51.399Z,1015.94
2017-09-24T01:16:51.387Z,1015.94
2017-09-24T01:17:51.363Z,1015.92
2017-09-24T01:18:51.354Z,1015.92
2017-09-24T01:19:51.365Z,1015.91
2017-09-24T01:20:51.308Z,1015.93
2017-09-24T01:21:51.297Z,1015.92
2017-09-24T01:22:51.274Z,1015.88
2017-09-24T01:23:51.265Z,1015.91
2017-09-24T01:24:51.246Z,1015.92
2017-09-24T01:25:51.218Z,1015.91
2017-09-24T01:26:51.203Z,1015.91
2017-09-24T01:27:51.187Z,1015.91
2017-09-24T01:28:51.170Z,1015.94
2017-09-24T01:29:51.147Z,1015.94
2017-09-24T01:30:51.137Z,1015.93
2017-09-24T01:31:51.109Z,1015.95
2017-09-24T01:32:51.101Z,1015.98
2017-09-24T01:33:51.079Z,1015.95
2017-09-24T01:34:51.057Z,1015.96
2017-09-24T01:35:51.037Z,1015.95
2017-09-24T01:36:51.017Z,1015.94
2017-09-24T01:37:51.011Z,1015.94
2017-09-24T01:38:50.984Z,1015.95
2017-09-24T01:39:50.966Z,1015.94
2017-09-24T01:40:50.951Z,1015.94
2017-09-24T01:41:50.923Z,1015.94
2017-09-24T01:42:50.910Z,1015.93
2017-09-24T01:43:50.895Z,1015.95
2017-09-24T01:44:50.877Z,1015.91
2017-09-24T01:45:50.853Z,1015.91
2017-09-24T01:46:50.838Z,1015.93
2017-09-24T01:47:50.817Z,1015.92
2017-09-24T01:48:50.797Z,1015.91
2017-09-24T01:49:50.786Z,1015.92
2017-09-24T01:50:50.765Z,1015.93
2017-09-24T01:51:50.749Z,1015.92
2017-09-24T01:52:50.728Z,1015.92
2017-09-24T01:53:50.717Z,1015.92
2017-09-24T01:54:50.700Z,1015.97
2017-09-24T01:55:50.678Z,1015.96
2017-09-24T01:56:50.655Z,1015.97
2017-09-24T01:57:50.640Z,1015.96
2017-09-24T01:58:50.618Z,1015.96
2017-09-24T01:59:50.598Z,1016
2017-09-24T02:00:50.583Z,1015.97
2017-09-24T02:01:50.570Z,1015.98
2017-09-24T02:02:50.543Z,1015.96
2017-09-24T02:03:50.528Z,1015.97
2017-09-24T02:04:50.508Z,1015.96
2017-09-24T02:05:50.498Z,1016.01
2017-09-24T02:06:50.479Z,1015.99
2017-09-24T02:07:50.456Z,1015.99
2017-09-24T02:08:50.434Z,1015.99
2017-09-24T02:09:50.420Z,1015.96
2017-09-24T02:10:50.400Z,1015.96
2017-09-24T02:11:50.386Z,1015.92
2017-09-24T02:12:50.368Z,1015.94
2017-09-24T02:13:50.492Z,1015.91
2017-09-24T02:14:50.325Z,1015.9
2017-09-24T02:15:50.310Z,1015.91
2017-09-24T02:16:50.289Z,1015.93
2017-09-24T02:17:50.271Z,1015.94
2017-09-24T02:18:50.259Z,1015.91
2017-09-24T02:19:50.241Z,1015.89
2017-09-24T02:20:50.219Z,1015.94
2017-09-24T02:21:50.198Z,1015.89
2017-09-24T02:22:50.181Z,1015.9
2017-09-24T02:23:50.166Z,1015.88
2017-09-24T02:24:50.153Z,1015.88
2017-09-24T02:25:50.126Z,1015.9
2017-09-24T02:26:50.104Z,1015.91
2017-09-24T02:27:50.118Z,1015.88
2017-09-24T02:28:50.065Z,1015.9
2017-09-24T02:29:50.132Z,1015.88
2017-09-24T02:30:50.041Z,1015.9
2017-09-24T02:31:50.015Z,1015.89
2017-09-24T02:32:49.997Z,1015.88
2017-09-24T02:33:49.988Z,1015.89
2017-09-24T02:34:49.958Z,1015.87
2017-09-24T02:35:49.939Z,1015.9
2017-09-24T02:36:49.922Z,1015.88
2017-09-24T02:37:49.906Z,1015.89
2017-09-24T02:38:49.884Z,1015.87
2017-09-24T02:39:49.868Z,1015.89
2017-09-24T02:40:49.850Z,1015.88
2017-09-24T02:41:49.835Z,1015.89
2017-09-24T02:42:49.812Z,1015.88
2017-09-24T02:43:49.798Z,1015.89
2017-09-24T02:44:49.773Z,1015.88
2017-09-24T02:45:49.756Z,1015.92
2017-09-24T02:46:49.740Z,1015.87
2017-09-24T02:47:49.726Z,1015.88
2017-09-24T02:48:49.698Z,1015.89
2017-09-24T02:49:49.741Z,1015.88
2017-09-24T02:50:49.663Z,1015.88
2017-09-24T02:51:49.643Z,1015.88
2017-09-24T02:52:49.629Z,1015.88
2017-09-24T02:53:49.605Z,1015.84
2017-09-24T02:54:49.588Z,1015.85
2017-09-24T02:55:49.568Z,1015.91
2017-09-24T02:56:49.549Z,1015.9
2017-09-24T02:57:49.538Z,1015.94
2017-09-24T02:58:49.514Z,1015.92
2017-09-24T02:59:49.498Z,1015.86
2017-09-24T03:00:49.481Z,1015.83
2017-09-24T03:01:49.459Z,1015.82
2017-09-24T03:02:49.444Z,1015.83
2017-09-24T03:03:49.428Z,1015.87
2017-09-24T03:04:49.401Z,1015.84
2017-09-24T03:05:49.385Z,1015.88
2017-09-24T03:06:49.368Z,1015.85
2017-09-24T03:07:49.350Z,1015.84
2017-09-24T03:08:49.329Z,1015.83
2017-09-24T03:09:49.313Z,1015.83
2017-09-24T03:10:49.291Z,1015.84
2017-09-24T03:11:49.279Z,1015.84
2017-09-24T03:12:49.255Z,1015.82
2017-09-24T03:13:49.240Z,1015.81
2017-09-24T03:14:49.217Z,1015.84
2017-09-24T03:15:49.197Z,1015.84
2017-09-24T03:16:49.184Z,1015.83
2017-09-24T03:17:49.165Z,1015.83
2017-09-24T03:18:49.149Z,1015.81
2017-09-24T03:19:49.125Z,1015.78
2017-09-24T03:20:49.107Z,1015.81
2017-09-24T03:21:49.086Z,1015.79
2017-09-24T03:22:49.069Z,1015.76
2017-09-24T03:23:49.052Z,1015.77
2017-09-24T03:24:49.033Z,1015.78
2017-09-24T03:25:49.017Z,1015.77
2017-09-24T03:26:49.001Z,1015.76
2017-09-24T03:27:48.979Z,1015.77
2017-09-24T03:28:48.959Z,1015.73
2017-09-24T03:29:48.948Z,1015.74
2017-09-24T03:30:48.929Z,1015.73
2017-09-24T03:31:48.908Z,1015.79
2017-09-24T03:32:48.899Z,1015.75
2017-09-24T03:33:48.868Z,1015.73
2017-09-24T03:34:48.851Z,1015.72
2017-09-24T03:35:48.828Z,1015.7
2017-09-24T03:36:48.818Z,1015.71
2017-09-24T03:37:48.796Z,1015.7
2017-09-24T03:38:48.772Z,1015.69
2017-09-24T03:39:48.758Z,1015.66
2017-09-24T03:40:48.738Z,1015.61
2017-09-24T03:41:48.721Z,1015.62
2017-09-24T03:42:48.708Z,1015.64
2017-09-24T03:43:48.682Z,1015.67
2017-09-24T03:44:48.672Z,1015.65
2017-09-24T03:45:48.698Z,1015.61
2017-09-24T03:46:48.628Z,1015.61
2017-09-24T03:47:48.658Z,1015.6
2017-09-24T03:48:48.611Z,1015.6
2017-09-24T03:49:48.673Z,1015.59
2017-09-24T03:50:48.551Z,1015.6
2017-09-24T03:51:48.542Z,1015.57
2017-09-24T03:52:48.521Z,1015.57
2017-09-24T03:53:48.499Z,1015.57
2017-09-24T03:54:48.481Z,1015.58
2017-09-24T03:55:48.469Z,1015.59
2017-09-24T03:56:48.448Z,1015.56
2017-09-24T03:57:48.428Z,1015.6
2017-09-24T03:58:48.407Z,1015.58
2017-09-24T03:59:48.392Z,1015.55
2017-09-24T04:00:48.365Z,1015.54
2017-09-24T04:01:48.359Z,1015.55
2017-09-24T04:02:48.330Z,1015.56
2017-09-24T04:03:48.318Z,1015.56
2017-09-24T04:04:48.300Z,1015.56
2017-09-24T04:05:48.279Z,1015.58
2017-09-24T04:06:48.259Z,1015.61
2017-09-24T04:07:48.242Z,1015.58
2017-09-24T04:08:48.218Z,1015.61
2017-09-24T04:09:48.250Z,1015.61
2017-09-24T04:10:48.190Z,1015.64
2017-09-24T04:11:48.169Z,1015.61
2017-09-24T04:12:48.168Z,1015.63
2017-09-24T04:13:48.189Z,1015.64
2017-09-24T04:14:48.108Z,1015.6
2017-09-24T04:15:48.143Z,1015.62
2017-09-24T04:16:48.072Z,1015.6
2017-09-24T04:17:48.102Z,1015.61
2017-09-24T04:18:48.039Z,1015.6
2017-09-24T04:19:48.076Z,1015.61
2017-09-24T04:20:47.999Z,1015.61
2017-09-24T04:21:47.989Z,1015.63
2017-09-24T04:22:47.969Z,1015.62
2017-09-24T04:23:48.000Z,1015.65
2017-09-24T04:24:47.926Z,1015.68
2017-09-24T04:25:47.907Z,1015.64
2017-09-24T04:26:47.889Z,1015.66
2017-09-24T04:27:47.870Z,1015.67
2017-09-24T04:28:47.850Z,1015.66
2017-09-24T04:29:47.842Z,1015.66
2017-09-24T04:30:47.819Z,1015.65
2017-09-24T04:31:47.799Z,1015.67
2017-09-24T04:32:47.779Z,1015.69
2017-09-24T04:33:47.758Z,1015.71
2017-09-24T04:34:47.738Z,1015.73
2017-09-24T04:35:47.731Z,1015.73
2017-09-24T04:36:47.709Z,1015.72
2017-09-24T04:37:47.689Z,1015.73
2017-09-24T04:38:47.668Z,1015.73
2017-09-24T04:39:47.663Z,1015.76
2017-09-24T04:40:47.629Z,1015.77
2017-09-24T04:41:47.609Z,1015.75
2017-09-24T04:42:47.594Z,1015.78
2017-09-24T04:43:47.575Z,1015.74
2017-09-24T04:44:47.559Z,1015.78
2017-09-24T04:45:47.539Z,1015.75
2017-09-24T04:46:47.522Z,1015.76
2017-09-24T04:47:47.498Z,1015.76
2017-09-24T04:48:47.481Z,1015.77
2017-09-24T04:49:47.469Z,1015.77
2017-09-24T04:50:47.445Z,1015.71
2017-09-24T04:51:47.428Z,1015.77
2017-09-24T04:52:47.414Z,1015.75
2017-09-24T04:53:47.391Z,1015.73
2017-09-24T04:54:47.372Z,1015.79
2017-09-24T04:55:47.355Z,1015.82
2017-09-24T04:56:47.340Z,1015.8
2017-09-24T04:57:47.319Z,1015.78
2017-09-24T04:58:47.298Z,1015.82
2017-09-24T04:59:47.290Z,1015.82
2017-09-24T05:00:47.258Z,1015.84
2017-09-24T05:01:47.239Z,1015.82
2017-09-24T05:02:47.224Z,1015.82
2017-09-24T05:03:47.205Z,1015.82
2017-09-24T05:04:47.186Z,1015.85
2017-09-24T05:05:47.167Z,1015.85
2017-09-24T05:06:47.154Z,1015.87
2017-09-24T05:07:47.129Z,1015.85
2017-09-24T05:08:47.109Z,1015.85
2017-09-24T05:09:47.095Z,1015.86
2017-09-24T05:10:47.090Z,1015.89
2017-09-24T05:11:47.059Z,1015.91
2017-09-24T05:12:47.041Z,1015.94
2017-09-24T05:13:47.021Z,1015.9
2017-09-24T05:14:46.998Z,1015.94
2017-09-24T05:15:46.991Z,1015.95
2017-09-24T05:16:46.963Z,1015.99
2017-09-24T05:17:46.944Z,1015.95
2017-09-24T05:18:46.929Z,1015.92
2017-09-24T05:19:46.911Z,1015.91
2017-09-24T05:20:46.889Z,1015.94
2017-09-24T05:21:46.879Z,1015.93
2017-09-24T05:22:46.860Z,1015.92
2017-09-24T05:23:46.834Z,1015.97
2017-09-24T05:24:46.820Z,1015.99
2017-09-24T05:25:46.799Z,1016.04
2017-09-24T05:26:46.780Z,1016.05
2017-09-24T05:27:46.759Z,1016.07
2017-09-24T05:28:46.746Z,1016.08
2017-09-24T05:29:46.728Z,1016.02
2017-09-24T05:30:46.704Z,1016.05
2017-09-24T05:31:46.689Z,1016.04
2017-09-24T05:32:46.668Z,1016.03
2017-09-24T05:33:46.647Z,1016
2017-09-24T05:34:46.630Z,1015.96
2017-09-24T05:35:46.612Z,1016.01
2017-09-24T05:36:46.599Z,1016.02
2017-09-24T05:37:46.576Z,1015.95
2017-09-24T05:38:46.558Z,1016
2017-09-24T05:39:46.537Z,1015.98
2017-09-24T05:40:46.519Z,1015.98
2017-09-24T05:41:46.498Z,1016
2017-09-24T05:42:46.481Z,1015.97
2017-09-24T05:43:46.463Z,1015.95
2017-09-24T05:44:46.451Z,1015.95
2017-09-24T05:45:46.432Z,1015.95
2017-09-24T05:46:46.409Z,1015.94
2017-09-24T05:47:46.389Z,1015.92
2017-09-24T05:48:46.373Z,1015.94
2017-09-24T05:49:46.348Z,1015.94
2017-09-24T05:50:46.340Z,1015.97
2017-09-24T05:51:46.316Z,1015.95
2017-09-24T05:52:46.298Z,1015.96
2017-09-24T05:53:46.280Z,1015.98
2017-09-24T05:54:46.259Z,1016.01
2017-09-24T05:55:46.252Z,1016
2017-09-24T05:56:46.222Z,1016
2017-09-24T05:57:46.210Z,1016.02
2017-09-24T05:58:46.189Z,1016.03
2017-09-24T05:59:46.168Z,1016.05
2017-09-24T06:00:46.150Z,1016.05
2017-09-24T06:01:46.126Z,1016.04
2017-09-24T06:02:46.112Z,1016.05
2017-09-24T06:03:46.091Z,1016.07
2017-09-24T06:04:46.075Z,1016.02
2017-09-24T06:05:46.063Z,1016.01
2017-09-24T06:06:46.035Z,1016.01
2017-09-24T06:07:46.015Z,1016.02
2017-09-24T06:08:46.001Z,1016.04
2017-09-24T06:09:45.980Z,1016.06
2017-09-24T06:10:45.959Z,1016.06
2017-09-24T06:11:45.949Z,1016.05
2017-09-24T06:12:45.929Z,1016.05
2017-09-24T06:13:45.904Z,1016.04
2017-09-24T06:14:45.890Z,1016.08
2017-09-24T06:15:45.873Z,1016.07
2017-09-24T06:16:45.853Z,1016.09
2017-09-24T06:17:45.840Z,1016.1
2017-09-24T06:18:45.817Z,1016.09
2017-09-24T06:19:45.801Z,1016.12
2017-09-24T06:20:45.779Z,1016.08
2017-09-24T06:21:45.758Z,1016.1
2017-09-24T06:22:45.743Z,1016.11
2017-09-24T06:23:45.731Z,1016.1
2017-09-24T06:24:45.737Z,1016.1
2017-09-24T06:25:45.686Z,1016.12
2017-09-24T06:26:45.668Z,1016.14
2017-09-24T06:27:45.648Z,1016.14
2017-09-24T06:28:45.631Z,1016.17
2017-09-24T06:29:45.612Z,1016.18
2017-09-24T06:30:45.603Z,1016.19
2017-09-24T06:31:45.587Z,1016.19
2017-09-24T06:32:45.556Z,1016.18
2017-09-24T06:33:45.541Z,1016.2
2017-09-24T06:34:45.521Z,1016.23
2017-09-24T06:35:45.504Z,1016.22
2017-09-24T06:36:45.482Z,1016.24
2017-09-24T06:37:45.468Z,1016.27
2017-09-24T06:38:45.452Z,1016.27
2017-09-24T06:39:45.430Z,1016.26
2017-09-24T06:40:45.413Z,1016.29
2017-09-24T06:41:45.392Z,1016.25
2017-09-24T06:42:45.370Z,1016.28
2017-09-24T06:43:45.350Z,1016.26
2017-09-24T06:44:45.337Z,1016.29
2017-09-24T06:45:45.321Z,1016.25
2017-09-24T06:46:45.300Z,1016.29
2017-09-24T06:47:45.289Z,1016.27
2017-09-24T06:48:45.260Z,1016.32
2017-09-24T06:49:45.245Z,1016.32
2017-09-24T06:50:45.226Z,1016.35
2017-09-24T06:51:45.213Z,1016.35
2017-09-24T06:52:45.188Z,1016.34
2017-09-24T06:53:45.168Z,1016.31
2017-09-24T06:54:45.149Z,1016.35
2017-09-24T06:55:45.130Z,1016.34
2017-09-24T06:56:45.113Z,1016.38
2017-09-24T06:57:45.098Z,1016.38
2017-09-24T06:58:45.082Z,1016.35
2017-09-24T06:59:45.062Z,1016.39
2017-09-24T07:00:45.043Z,1016.37
2017-09-24T07:01:45.023Z,1016.42
2017-09-24T07:02:45.011Z,1016.4
2017-09-24T07:03:44.985Z,1016.43
2017-09-24T07:04:44.966Z,1016.44
2017-09-24T07:05:44.952Z,1016.47
2017-09-24T07:06:44.939Z,1016.45
2017-09-24T07:07:44.912Z,1016.48
2017-09-24T07:08:44.896Z,1016.47
2017-09-24T07:09:44.874Z,1016.49
2017-09-24T07:10:44.864Z,1016.49
2017-09-24T07:11:44.861Z,1016.47
2017-09-24T07:12:44.821Z,1016.46
2017-09-24T07:13:44.806Z,1016.44
2017-09-24T07:14:44.787Z,1016.47
2017-09-24T07:15:44.772Z,1016.45
2017-09-24T07:16:44.757Z,1016.49
2017-09-24T07:17:44.732Z,1016.52
2017-09-24T07:18:44.714Z,1016.51
2017-09-24T07:19:44.693Z,1016.51
2017-09-24T07:20:44.677Z,1016.53
2017-09-24T07:21:44.658Z,1016.58
2017-09-24T07:22:44.640Z,1016.51
2017-09-24T07:23:44.623Z,1016.56
2017-09-24T07:24:44.607Z,1016.55
2017-09-24T07:25:44.586Z,1016.57
2017-09-24T07:26:44.568Z,1016.59
2017-09-24T07:27:44.550Z,1016.66
2017-09-24T07:28:44.529Z,1016.68
2017-09-24T07:29:44.548Z,1016.65
2017-09-24T07:30:44.498Z,1016.69
2017-09-24T07:31:44.483Z,1016.69
2017-09-24T07:32:44.461Z,1016.69
2017-09-24T07:33:44.440Z,1016.69
2017-09-24T07:34:44.427Z,1016.69
2017-09-24T07:35:44.415Z,1016.71
2017-09-24T07:36:44.394Z,1016.71
2017-09-24T07:37:44.378Z,1016.7
2017-09-24T07:38:44.357Z,1016.67
2017-09-24T07:39:44.340Z,1016.65
2017-09-24T07:40:44.323Z,1016.63
2017-09-24T07:41:44.305Z,1016.65
2017-09-24T07:42:44.285Z,1016.64
2017-09-24T07:43:44.268Z,1016.65
2017-09-24T07:44:44.253Z,1016.68
2017-09-24T07:45:44.242Z,1016.69
2017-09-24T07:46:44.220Z,1016.68
2017-09-24T07:47:44.197Z,1016.68
2017-09-24T07:48:44.180Z,1016.65
2017-09-24T07:49:44.170Z,1016.64
2017-09-24T07:50:44.142Z,1016.66
2017-09-24T07:51:44.126Z,1016.67
2017-09-24T07:52:44.123Z,1016.68
2017-09-24T07:53:44.094Z,1016.67
2017-09-24T07:54:44.082Z,1016.69
2017-09-24T07:55:44.060Z,1016.7
2017-09-24T07:56:44.049Z,1016.71
2017-09-24T07:57:44.029Z,1016.69
2017-09-24T07:58:44.009Z,1016.7
2017-09-24T07:59:43.989Z,1016.73
2017-09-24T08:00:43.970Z,1016.71
2017-09-24T08:01:43.959Z,1016.74
2017-09-24T08:02:43.937Z,1016.77
2017-09-24T08:03:43.914Z,1016.74
2017-09-24T08:04:43.899Z,1016.77
2017-09-24T08:05:43.882Z,1016.75
2017-09-24T08:06:43.870Z,1016.77
2017-09-24T08:07:43.849Z,1016.77
2017-09-24T08:08:43.828Z,1016.79
2017-09-24T08:09:43.819Z,1016.79
2017-09-24T08:10:43.801Z,1016.81
2017-09-24T08:11:43.782Z,1016.85
2017-09-24T08:12:43.759Z,1016.85
2017-09-24T08:13:43.749Z,1016.79
2017-09-24T08:14:43.730Z,1016.81
2017-09-24T08:15:43.709Z,1016.82
2017-09-24T08:16:43.691Z,1016.79
2017-09-24T08:17:43.691Z,1016.78
2017-09-24T08:18:43.658Z,1016.74
2017-09-24T08:19:43.642Z,1016.76
2017-09-24T08:20:43.633Z,1016.78
2017-09-24T08:21:43.612Z,1016.78
2017-09-24T08:22:43.589Z,1016.76
2017-09-24T08:23:43.574Z,1016.77
2017-09-24T08:24:43.557Z,1016.81
2017-09-24T08:25:43.538Z,1016.8
2017-09-24T08:26:43.523Z,1016.79
2017-09-24T08:27:43.506Z,1016.83
2017-09-24T08:28:43.499Z,1016.86
2017-09-24T08:29:43.480Z,1016.83
2017-09-24T08:30:43.459Z,1016.83
2017-09-24T08:31:43.440Z,1016.9
2017-09-24T08:32:43.419Z,1016.85
2017-09-24T08:33:43.405Z,1016.86
2017-09-24T08:34:43.386Z,1016.91
2017-09-24T08:35:43.379Z,1016.92
2017-09-24T08:36:43.359Z,1016.92
2017-09-24T08:37:43.353Z,1016.91
2017-09-24T08:38:43.323Z,1016.92
2017-09-24T08:39:43.312Z,1016.88
2017-09-24T08:40:43.285Z,1016.89
2017-09-24T08:41:43.282Z,1016.9
2017-09-24T08:42:43.254Z,1016.91
2017-09-24T08:43:43.237Z,1016.89
2017-09-24T08:44:43.221Z,1016.9
2017-09-24T08:45:43.212Z,1016.87
2017-09-24T08:46:43.196Z,1016.88
2017-09-24T08:47:43.182Z,1016.95
2017-09-24T08:48:43.157Z,1016.92
2017-09-24T08:49:43.142Z,1016.95
2017-09-24T08:50:43.133Z,1016.97
2017-09-24T08:51:43.114Z,1016.99
2017-09-24T08:52:43.091Z,1016.97
2017-09-24T08:53:43.083Z,1016.93
2017-09-24T08:54:43.072Z,1016.96
2017-09-24T08:55:43.043Z,1016.99
2017-09-24T08:56:43.032Z,1016.96
2017-09-24T08:57:43.011Z,1016.94
2017-09-24T08:58:43.011Z,1016.94
2017-09-24T08:59:42.984Z,1016.97
2017-09-24T09:00:42.970Z,1016.96
2017-09-24T09:01:42.962Z,1016.93
2017-09-24T09:02:42.940Z,1016.93
2017-09-24T09:03:42.918Z,1016.93
2017-09-24T09:04:42.908Z,1016.91
2017-09-24T09:05:42.889Z,1016.93
2017-09-24T09:06:42.872Z,1016.93
2017-09-24T09:07:42.859Z,1016.93
2017-09-24T09:08:42.845Z,1016.93
2017-09-24T09:09:42.831Z,1016.91
2017-09-24T09:10:42.821Z,1016.92
2017-09-24T09:11:42.792Z,1016.92
2017-09-24T09:12:42.840Z,1016.93
2017-09-24T09:13:42.768Z,1016.91
2017-09-24T09:14:42.751Z,1016.95
2017-09-24T09:15:42.742Z,1016.97
2017-09-24T09:16:42.730Z,1016.99
2017-09-24T09:17:42.712Z,1016.99
2017-09-24T09:18:42.751Z,1016.99
2017-09-24T09:19:42.676Z,1017
2017-09-24T09:20:42.765Z,1017.02
2017-09-24T09:21:42.647Z,1017
2017-09-24T09:22:42.634Z,1017.03
2017-09-24T09:23:42.619Z,1017.02
2017-09-24T09:24:42.620Z,1017.01
2017-09-24T09:25:42.592Z,1017
2017-09-24T09:26:42.580Z,1017.03
2017-09-24T09:27:42.564Z,1017.03
2017-09-24T09:28:42.552Z,1017.01
2017-09-24T09:29:42.542Z,1017
2017-09-24T09:30:42.570Z,1017.03
2017-09-24T09:31:42.508Z,1016.99
2017-09-24T09:32:42.494Z,1017
2017-09-24T09:33:42.488Z,1017.03
2017-09-24T09:34:42.469Z,1017.01
2017-09-24T09:35:42.450Z,1017.02
2017-09-24T09:36:42.437Z,1016.97
2017-09-24T09:37:42.432Z,1017
2017-09-24T09:38:42.418Z,1017
2017-09-24T09:39:42.401Z,1016.98
2017-09-24T09:40:42.379Z,1016.98
2017-09-24T09:41:42.372Z,1016.97
2017-09-24T09:42:42.361Z,1016.95
2017-09-24T09:43:42.341Z,1017
2017-09-24T09:44:42.329Z,1016.96
2017-09-24T09:45:42.312Z,1016.94
2017-09-24T09:46:42.303Z,1016.92
2017-09-24T09:47:42.297Z,1016.93
2017-09-24T09:48:42.282Z,1016.88
2017-09-24T09:49:42.262Z,1016.89
2017-09-24T09:50:42.251Z,1016.9
2017-09-24T09:51:42.241Z,1016.92
2017-09-24T09:52:42.222Z,1016.9
2017-09-24T09:53:42.206Z,1016.93
2017-09-24T09:54:42.201Z,1016.92
2017-09-24T09:55:42.188Z,1016.92
2017-09-24T09:56:42.216Z,1016.86
2017-09-24T09:57:42.162Z,1016.85
2017-09-24T09:58:42.150Z,1016.84
2017-09-24T09:59:42.141Z,1016.86
2017-09-24T10:00:42.131Z,1016.85
2017-09-24T10:01:42.117Z,1016.92
2017-09-24T10:02:42.112Z,1016.97
2017-09-24T10:03:42.100Z,1016.94
2017-09-24T10:04:42.091Z,1016.94
2017-09-24T10:05:42.079Z,1016.9
2017-09-24T10:06:42.093Z,1016.91
2017-09-24T10:07:42.065Z,1016.92
2017-09-24T10:08:42.062Z,1016.96
2017-09-24T10:09:42.044Z,1016.96
2017-09-24T10:10:42.037Z,1016.97
2017-09-24T10:11:42.029Z,1016.94
2017-09-24T10:12:42.020Z,1016.97
2017-09-24T10:13:42.008Z,1016.95
2017-09-24T10:14:42.001Z,1016.94
2017-09-24T10:15:42.001Z,1016.97
2017-09-24T10:16:41.991Z,1016.95
2017-09-24T10:17:41.982Z,1016.96
2017-09-24T10:18:41.982Z,1016.93
2017-09-24T10:19:41.957Z,1016.97
2017-09-24T10:20:41.952Z,1016.9
2017-09-24T10:21:41.950Z,1016.87
2017-09-24T10:22:41.941Z,1016.91
2017-09-24T10:23:41.928Z,1016.89
2017-09-24T10:24:41.920Z,1016.9
2017-09-24T10:25:41.909Z,1016.88
2017-09-24T10:26:41.900Z,1016.87
2017-09-24T10:27:41.899Z,1016.87
2017-09-24T10:28:41.890Z,1016.91
2017-09-24T10:29:41.880Z,1016.87
2017-09-24T10:30:41.882Z,1016.84
2017-09-24T10:31:41.860Z,1016.85
2017-09-24T10:32:41.860Z,1016.86
2017-09-24T10:33:41.848Z,1016.84
2017-09-24T10:34:41.841Z,1016.84
2017-09-24T10:35:41.831Z,1016.82
2017-09-24T10:36:41.827Z,1016.88
2017-09-24T10:37:41.810Z,1016.84
2017-09-24T10:38:41.810Z,1016.87
2017-09-24T10:39:41.812Z,1016.88
2017-09-24T10:40:41.786Z,1016.88
2017-09-24T10:41:41.782Z,1016.91
2017-09-24T10:42:41.770Z,1016.88
2017-09-24T10:43:41.763Z,1016.87
2017-09-24T10:44:41.754Z,1016.89
2017-09-24T10:45:41.741Z,1016.94
2017-09-24T10:46:41.740Z,1016.89
2017-09-24T10:47:41.727Z,1016.83
2017-09-24T10:48:41.720Z,1016.84
2017-09-24T10:49:41.712Z,1016.86
2017-09-24T10:50:41.699Z,1016.78
2017-09-24T10:51:41.691Z,1016.74
2017-09-24T10:52:41.683Z,1016.79
2017-09-24T10:53:41.682Z,1016.82
2017-09-24T10:54:41.672Z,1016.8
2017-09-24T10:55:41.664Z,1016.81
2017-09-24T10:56:41.657Z,1016.8
2017-09-24T10:57:41.640Z,1016.76
2017-09-24T10:58:41.645Z,1016.77
2017-09-24T10:59:41.626Z,1016.77
2017-09-24T11:00:41.620Z,1016.81
2017-09-24T11:01:41.615Z,1016.77
2017-09-24T11:02:41.602Z,1016.82
2017-09-24T11:03:41.592Z,1016.78
2017-09-24T11:04:41.582Z,1016.78
2017-09-24T11:05:41.579Z,1016.76
2017-09-24T11:06:41.569Z,1016.79
2017-09-24T11:07:41.560Z,1016.77
2017-09-24T11:08:41.552Z,1016.76
2017-09-24T11:09:41.536Z,1016.77
2017-09-24T11:10:41.531Z,1016.73
2017-09-24T11:11:41.528Z,1016.76
2017-09-24T11:12:41.519Z,1016.76
2017-09-24T11:13:41.507Z,1016.76
2017-09-24T11:14:41.498Z,1016.77
2017-09-24T11:15:41.492Z,1016.75
2017-09-24T11:16:41.481Z,1016.75
2017-09-24T11:17:41.467Z,1016.72
2017-09-24T11:18:41.453Z,1016.73
2017-09-24T11:19:41.443Z,1016.74
2017-09-24T11:20:41.440Z,1016.8
2017-09-24T11:21:41.426Z,1016.74
2017-09-24T11:22:41.418Z,1016.8
2017-09-24T11:23:41.409Z,1016.78
2017-09-24T11:24:41.402Z,1016.83
2017-09-24T11:25:41.399Z,1016.79
2017-09-24T11:26:41.382Z,1016.78
2017-09-24T11:27:41.376Z,1016.8
2017-09-24T11:28:41.369Z,1016.75
2017-09-24T11:29:41.349Z,1016.77
2017-09-24T11:30:41.345Z,1016.71
2017-09-24T11:31:41.333Z,1016.72
2017-09-24T11:32:41.318Z,1016.7
2017-09-24T11:33:41.309Z,1016.68
2017-09-24T11:34:41.306Z,1016.68
2017-09-24T11:35:41.298Z,1016.67
2017-09-24T11:36:41.285Z,1016.66
2017-09-24T11:37:41.280Z,1016.66
2017-09-24T11:38:41.261Z,1016.7
2017-09-24T11:39:41.261Z,1016.7
2017-09-24T11:40:41.248Z,1016.7
2017-09-24T11:41:41.272Z,1016.7
2017-09-24T11:42:41.226Z,1016.72
2017-09-24T11:43:41.219Z,1016.73
2017-09-24T11:44:41.209Z,1016.72
2017-09-24T11:45:41.194Z,1016.7
2017-09-24T11:46:41.188Z,1016.71
2017-09-24T11:47:41.178Z,1016.71
2017-09-24T11:48:41.170Z,1016.7
2017-09-24T11:49:41.169Z,1016.7
2017-09-24T11:50:41.159Z,1016.74
2017-09-24T11:51:41.150Z,1016.71
2017-09-24T11:52:41.146Z,1016.7
2017-09-24T11:53:41.128Z,1016.68
2017-09-24T11:54:41.119Z,1016.7
2017-09-24T11:55:41.104Z,1016.76
2017-09-24T11:56:41.095Z,1016.76
2017-09-24T11:57:41.099Z,1016.76
2017-09-24T11:58:41.078Z,1016.73
2017-09-24T11:59:41.071Z,1016.73
2017-09-24T12:00:41.061Z,1016.69
2017-09-24T12:01:41.058Z,1016.74
2017-09-24T12:02:41.040Z,1016.73
2017-09-24T12:03:41.040Z,1016.75
2017-09-24T12:04:41.029Z,1016.73
2017-09-24T12:05:41.018Z,1016.73
2017-09-24T12:06:41.013Z,1016.75
2017-09-24T12:07:40.996Z,1016.72
2017-09-24T12:08:40.990Z,1016.72
2017-09-24T12:09:40.980Z,1016.71